createdAt,value
2022-10-01T00:00:01.643Z,42.062554994575805
2022-10-01T00:15:05.788Z,42.15389509879895
2022-10-01T00:30:01.862Z,41.989017086535945
2022-10-01T00:45:01.481Z,42.13733335560003
2022-10-01T01:00:02.113Z,42.017790525328195
2022-10-01T01:15:01.737Z,42.103452689930315
2022-10-01T01:30:02.370Z,43.48664465801452
2022-10-01T01:45:01.993Z,45.94541646528113
2022-10-01T02:00:01.620Z,47.20239523954144
2022-10-01T02:15:02.265Z,47.66297631319364
2022-10-01T02:30:01.898Z,48.33257234431998
2022-10-01T02:45:01.538Z,49.307490503143214
2022-10-01T03:00:02.203Z,50.53690554138566
2022-10-01T03:15:01.835Z,51.5210972587419
2022-10-01T03:30:01.507Z,52.363162777080696
2022-10-01T03:45:02.117Z,52.22308262097372
2022-10-01T04:00:01.744Z,52.79845925741406
2022-10-01T04:15:01.390Z,54.07049385573419
2022-10-01T04:30:02.025Z,54.53326635762486
2022-10-01T04:45:01.686Z,54.560227297387925
2022-10-01T05:00:01.301Z,55.66764108417221
2022-10-01T05:15:01.946Z,56.29135516612504
2022-10-01T05:30:01.585Z,56.59034118177174
2022-10-01T05:45:02.243Z,56.76813214988037
2022-10-01T06:00:01.868Z,55.85098738761318
2022-10-01T06:15:01.488Z,56.56138773427286
2022-10-01T06:30:02.170Z,56.199957934631236
2022-10-01T06:45:01.818Z,55.774377299686954
2022-10-01T07:00:01.399Z,55.16822207737485
2022-10-01T07:15:02.059Z,55.474889454796724
2022-10-01T07:30:01.749Z,55.06459489754771
2022-10-01T07:45:01.376Z,53.80413724469302
2022-10-01T08:00:02.025Z,52.48223683195716
2022-10-01T08:15:01.991Z,51.77362116398123
2022-10-01T08:30:01.635Z,50.68637425008175
2022-10-01T08:45:02.269Z,48.60049768676438
2022-10-01T09:00:01.893Z,46.701878058764734
2022-10-01T09:15:01.547Z,48.51046232228102
2022-10-01T09:30:02.263Z,48.11807598025246
2022-10-01T09:45:01.941Z,45.43802622834041
2022-10-01T10:00:01.540Z,43.77183944730263
2022-10-01T10:15:02.189Z,43.565410721692544
2022-10-01T10:30:01.856Z,34.99844293160146
2022-10-01T10:45:01.523Z,39.82194696812487
2022-10-01T11:00:02.139Z,36.02450487167468
2022-10-01T11:15:01.834Z,36.44846908021592
2022-10-01T11:30:01.498Z,37.601368529351674
2022-10-01T11:45:02.127Z,40.165913989851695
2022-10-01T12:00:01.726Z,34.13547067123742
2022-10-01T12:15:06.278Z,30.708655647022873
2022-10-01T12:30:01.544Z,33.24548651154276
2022-10-01T12:45:02.247Z,40.59658115031899
2022-10-01T13:00:01.880Z,50.8778321086795
2022-10-01T13:15:01.535Z,49.95015318832053
2022-10-01T13:30:02.211Z,48.893280517260735
2022-10-01T13:45:01.868Z,40.03593636298422
2022-10-01T14:00:01.490Z,39.856241888776054
2022-10-01T14:15:02.124Z,34.31858418132215
2022-10-01T14:30:01.831Z,34.33434290954772
2022-10-01T14:45:01.492Z,39.55540820155966
2022-10-01T15:00:02.104Z,44.72511747998067
2022-10-01T15:15:01.764Z,41.62001366236087
2022-10-01T15:30:01.546Z,38.69398586113389
2022-10-01T15:45:01.279Z,38.821063569976026
2022-10-01T16:00:01.904Z,44.34407545945533
2022-10-01T16:15:01.859Z,41.400672454317565
2022-10-01T16:30:05.444Z,45.216054515989214
2022-10-01T16:45:01.580Z,47.23630120740724
2022-10-01T17:00:02.232Z,49.153815338239625
2022-10-01T17:15:01.891Z,50.4450228746819
2022-10-01T17:30:01.591Z,50.36629654593772
2022-10-01T17:45:02.255Z,50.051129210117324
2022-10-01T18:00:01.865Z,48.9594961008032
2022-10-01T18:15:01.567Z,49.657132733849984
2022-10-01T18:30:02.277Z,49.74774695870914
2022-10-01T18:45:01.950Z,49.51187225151366
2022-10-01T19:00:01.527Z,48.98445423538725
2022-10-01T19:15:02.206Z,47.958835575730966
2022-10-01T19:30:01.878Z,47.60502688388666
2022-10-01T19:45:01.510Z,47.419966551244855
2022-10-01T20:00:02.115Z,47.52647064505166
2022-10-01T20:15:01.790Z,48.56032140167187
2022-10-01T20:30:01.446Z,48.74007151090593
2022-10-01T20:45:02.099Z,48.95747849082592
2022-10-01T21:00:01.711Z,49.173770011883825
2022-10-01T21:15:01.353Z,49.1815008676919
2022-10-01T21:30:02.022Z,49.027955883414435
2022-10-01T21:45:01.668Z,49.18984418508654
2022-10-01T22:00:01.289Z,49.19329366832639
2022-10-01T22:15:01.932Z,49.06718589724596
2022-10-01T22:30:01.612Z,49.29608522765388
2022-10-01T22:45:01.262Z,49.525420354040456
2022-10-01T23:00:01.859Z,49.70028887020377
2022-10-01T23:15:01.507Z,49.80410960170533
2022-10-01T23:30:01.166Z,49.85787887682553
2022-10-01T23:45:01.770Z,50.27974240802322
